Clorinda, Argentina
Current Conditions -  °F | °C
As of 10:32 PM on Friday 28 Nov 2014 (Local Time) from SGAS Reporting Station
Few Clouds Few Clouds  
Wind Chill: 27°   Ceiling: Unl
Heat Index: 29°   Visibility: 6mi
Dew Point: 22°   Wind: 5mph
Humidity: 74%   Direction: 60°ENE
Pressure: 29.8"   Gusts: NA
Location:  25.29°S, 57.72°W
Report Text: SGAS 290132Z 06004KT 9999 FEW033 27/22 Q1009
Loading
Personal Weather Stations






























Interactive Weather Map New forecast layout! Learn more

10-Day Weather Forecast

Advertisements
Track Severe Weather on mobile